Time;durP1;ratioP1;P1;durP2;ratioP2;P2;SDS_P1;SDS_P2;PMS_P1;PMS_P2;Temp;Humidity;BMP_temperature;BMP_pressure;BME280_temperature;BME280_humidity;BME280_pressure;Samples;Min_cycle;Max_cycle;Signal;HPM_P1;HPM_P2
2022/10/18 00:01:47;;;;;;;12.45;11.10;;;14.10;99.90;;;;;;5022321;28;20214;-91
2022/10/18 00:04:17;;;;;;;15.82;10.85;;;14.00;99.90;;;;;;5021187;28;20231;-91
2022/10/18 00:06:46;;;;;;;15.52;11.38;;;14.00;99.90;;;;;;5016837;28;20213;-91
2022/10/18 00:09:14;;;;;;;11.50;10.32;;;14.00;99.90;;;;;;5016040;28;20286;-91
2022/10/18 00:11:42;;;;;;;13.13;10.07;;;13.90;99.90;;;;;;5016052;28;20207;-90
2022/10/18 00:14:10;;;;;;;14.90;11.02;;;13.90;99.90;;;;;;5015576;28;20207;-91
2022/10/18 00:16:38;;;;;;;13.38;11.13;;;13.90;99.90;;;;;;5015503;28;20210;-90
2022/10/18 00:19:07;;;;;;;11.07;10.05;;;13.90;99.90;;;;;;5015231;28;20234;-92
2022/10/18 00:21:37;;;;;;;12.55;11.15;;;13.90;99.90;;;;;;5015985;28;20214;-92
2022/10/18 00:24:06;;;;;;;11.40;10.20;;;13.80;99.90;;;;;;5015882;28;20218;-92
2022/10/18 00:26:34;;;;;;;10.88;9.75;;;13.80;99.90;;;;;;5015435;28;20218;-91
2022/10/18 00:29:05;;;;;;;15.00;11.10;;;13.80;99.90;;;;;;5015300;28;20227;-91
2022/10/18 00:31:35;;;;;;;12.05;10.55;;;13.70;99.90;;;;;;5015197;28;20207;-91
2022/10/18 00:34:05;;;;;;;11.00;9.95;;;13.70;99.90;;;;;;5015281;28;20207;-92
2022/10/18 00:36:34;;;;;;;13.48;10.90;;;13.70;99.90;;;;;;5014988;28;20211;-91
2022/10/18 00:39:07;;;;;;;21.25;12.50;;;13.60;99.90;;;;;;5015308;28;20234;-91
2022/10/18 00:41:37;;;;;;;10.55;9.52;;;13.60;99.90;;;;;;5014874;28;20242;-92
2022/10/18 00:44:27;;;;;;;10.13;9.23;;;13.50;99.90;;;;;;5015090;28;20203;-91
2022/10/18 00:46:58;;;;;;;18.80;10.18;;;13.50;99.90;;;;;;5015265;28;20203;-91
2022/10/18 00:49:31;;;;;;;12.93;10.65;;;13.50;99.90;;;;;;5015110;28;20203;-91
2022/10/18 00:52:03;;;;;;;11.70;10.55;;;13.50;99.90;;;;;;5014957;28;20215;-92
2022/10/18 00:54:35;;;;;;;13.27;10.57;;;13.50;99.90;;;;;;5015089;28;20206;-91
2022/10/18 00:57:05;;;;;;;12.15;10.90;;;13.40;99.90;;;;;;5014920;28;20234;-92
2022/10/18 00:59:34;;;;;;;12.73;9.68;;;13.40;99.90;;;;;;5014610;28;20203;-90
2022/10/18 01:02:02;;;;;;;10.40;9.50;;;13.40;99.90;;;;;;5014955;28;20207;-92
2022/10/18 01:04:31;;;;;;;10.68;9.52;;;13.30;99.90;;;;;;5014714;28;20223;-91
2022/10/18 01:07:03;;;;;;;12.13;9.82;;;13.30;99.90;;;;;;5014709;28;20215;-91
2022/10/18 01:09:39;;;;;;;11.60;10.38;;;13.30;99.90;;;;;;5014742;28;20210;-91
2022/10/18 01:12:22;;;;;;;12.65;10.27;;;13.30;99.90;;;;;;5014755;28;20206;-91
2022/10/18 01:14:57;;;;;;;12.18;9.20;;;13.30;99.90;;;;;;5014896;28;20207;-91
2022/10/18 01:17:33;;;;;;;12.13;9.43;;;13.30;99.90;;;;;;5015062;28;20226;-91
2022/10/18 01:20:33;;;;;;;9.80;8.88;;;13.30;99.90;;;;;;5014774;28;20238;-92
2022/10/18 01:23:06;;;;;;;10.82;9.82;;;13.30;99.90;;;;;;5014631;28;20207;-92
2022/10/18 01:25:42;;;;;;;9.15;8.20;;;13.30;99.90;;;;;;5014516;28;20230;-92
2022/10/18 01:28:24;;;;;;;10.90;9.88;;;13.30;99.90;;;;;;5014793;28;20227;-91
2022/10/18 01:30:59;;;;;;;9.93;8.85;;;13.30;99.90;;;;;;5014533;28;20257;-91
2022/10/18 01:33:35;;;;;;;10.02;9.15;;;13.20;99.90;;;;;;5014077;28;20202;-91
2022/10/18 01:36:09;;;;;;;9.73;8.82;;;13.20;99.90;;;;;;5014475;28;20214;-91
2022/10/18 01:38:39;;;;;;;13.35;10.40;;;13.20;99.90;;;;;;5014039;28;20219;-91
2022/10/18 01:41:11;;;;;;;12.82;9.98;;;13.20;99.90;;;;;;5014214;28;20222;-91
2022/10/18 01:43:45;;;;;;;11.02;9.20;;;13.10;99.90;;;;;;5014263;28;20214;-91
2022/10/18 01:46:19;;;;;;;11.60;9.98;;;13.10;99.90;;;;;;5013382;28;20314;-91
2022/10/18 01:48:48;;;;;;;9.60;8.10;;;13.10;99.90;;;;;;5013819;28;20237;-92
2022/10/18 01:51:20;;;;;;;10.00;9.00;;;13.10;99.90;;;;;;5014315;28;20207;-92
2022/10/18 01:53:48;;;;;;;11.75;10.05;;;13.00;99.90;;;;;;5015281;28;20207;-91
2022/10/18 01:56:30;;;;;;;11.45;9.10;;;13.00;99.90;;;;;;5022293;28;20234;-90
2022/10/18 01:59:11;;;;;;;12.38;10.77;;;13.00;99.90;;;;;;5013560;28;20273;-91
2022/10/18 02:01:51;;;;;;;14.15;10.93;;;13.00;99.90;;;;;;5014248;28;20274;-91
2022/10/18 02:04:27;;;;;;;10.77;9.57;;;12.90;99.90;;;;;;5013892;28;20206;-91
2022/10/18 02:07:02;;;;;;;11.93;9.10;;;12.90;99.90;;;;;;5013500;28;20227;-91
2022/10/18 02:09:38;;;;;;;12.25;10.13;;;12.90;99.90;;;;;;5013901;28;20213;-91
2022/10/18 02:12:10;;;;;;;13.38;10.05;;;12.90;99.90;;;;;;5013764;28;20213;-91
2022/10/18 02:14:41;;;;;;;11.63;8.38;;;12.90;99.90;;;;;;5013570;28;20207;-92
2022/10/18 02:17:13;;;;;;;10.27;9.27;;;12.80;99.90;;;;;;5013584;28;20237;-91
2022/10/18 02:19:45;;;;;;;9.25;8.43;;;12.80;99.90;;;;;;5013636;28;20207;-92
2022/10/18 02:22:15;;;;;;;11.73;9.43;;;12.80;99.90;;;;;;5013994;28;20218;-91
2022/10/18 02:24:48;;;;;;;15.70;8.98;;;12.70;99.90;;;;;;5013385;28;20211;-92
2022/10/18 02:27:17;;;;;;;10.65;9.50;;;12.70;99.90;;;;;;5013435;28;20221;-91
2022/10/18 02:29:46;;;;;;;9.85;8.95;;;12.70;99.90;;;;;;5013039;28;20215;-91
2022/10/18 02:32:21;;;;;;;9.65;8.75;;;12.70;99.90;;;;;;5012936;28;20211;-91
2022/10/18 02:34:57;;;;;;;8.35;7.55;;;12.60;99.90;;;;;;5013450;28;20208;-90
2022/10/18 02:37:28;;;;;;;9.85;8.80;;;12.60;99.90;;;;;;5013172;28;20233;-91
2022/10/18 02:39:57;;;;;;;9.00;8.13;;;12.60;99.90;;;;;;5068664;22;20320;-90
2022/10/18 02:42:34;;;;;;;11.45;9.52;;;12.60;99.90;;;;;;5052271;28;20205;-91
2022/10/18 02:45:03;;;;;;;10.55;9.07;;;12.60;99.90;;;;;;5052392;28;20197;-90
2022/10/18 02:47:33;;;;;;;10.15;8.65;;;12.60;99.90;;;;;;5052527;28;20205;-90
2022/10/18 02:50:05;;;;;;;12.98;8.82;;;12.60;99.90;;;;;;5052103;28;20242;-90
2022/10/18 02:52:34;;;;;;;9.00;8.10;;;12.60;99.90;;;;;;5052405;28;20205;-90
2022/10/18 02:55:03;;;;;;;12.95;8.85;;;12.50;99.90;;;;;;5052428;28;20215;-91
2022/10/18 02:57:41;;;;;;;9.18;8.38;;;12.50;99.90;;;;;;5052283;28;20205;-90
2022/10/18 03:00:10;;;;;;;14.20;9.55;;;12.50;99.90;;;;;;5056404;28;20235;-90
2022/10/18 03:02:40;;;;;;;18.38;8.90;;;12.50;99.90;;;;;;5056823;28;20202;-90
2022/10/18 03:05:09;;;;;;;9.27;8.30;;;12.50;99.90;;;;;;5056480;28;20205;-90
2022/10/18 03:07:40;;;;;;;9.15;8.13;;;12.50;99.90;;;;;;5056417;28;20208;-90
2022/10/18 03:10:11;;;;;;;8.20;7.50;;;12.40;99.90;;;;;;5056009;28;20222;-90
2022/10/18 03:12:40;;;;;;;8.85;8.05;;;12.40;99.90;;;;;;5056360;28;20256;-90
2022/10/18 03:15:21;;;;;;;6.72;6.05;;;12.40;99.90;;;;;;5056672;28;20289;-91
2022/10/18 03:18:10;;;;;;;10.38;8.05;;;12.40;99.90;;;;;;5056107;28;20205;-91
2022/10/18 03:20:38;;;;;;;9.02;8.20;;;12.40;99.90;;;;;;5056256;28;20214;-92
2022/10/18 03:23:07;;;;;;;8.05;7.07;;;;;;;;;;5055972;28;20209;-92
2022/10/18 03:25:35;;;;;;;8.65;7.85;;;12.40;99.90;;;;;;5056108;28;20206;-91
2022/10/18 03:28:03;;;;;;;8.45;7.65;;;12.30;99.90;;;;;;5056355;28;20206;-91
2022/10/18 03:30:32;;;;;;;11.60;8.98;;;12.30;99.90;;;;;;5055680;28;20213;-92
2022/10/18 03:33:00;;;;;;;12.48;7.97;;;12.30;99.90;;;;;;5055790;28;20205;-91
2022/10/18 03:35:29;;;;;;;9.32;7.93;;;12.30;99.90;;;;;;5055923;28;20217;-91
2022/10/18 03:37:58;;;;;;;16.08;7.50;;;12.20;99.90;;;;;;5056138;28;20217;-91
2022/10/18 03:40:26;;;;;;;8.77;7.90;;;12.30;99.90;;;;;;5056104;28;20214;-91
2022/10/18 03:42:54;;;;;;;8.43;7.47;;;12.20;99.90;;;;;;5055963;28;20205;-91
2022/10/18 03:45:23;;;;;;;9.43;7.85;;;12.20;99.90;;;;;;5055713;28;20209;-92
2022/10/18 03:47:58;;;;;;;7.82;7.13;;;12.20;99.90;;;;;;5055461;28;20233;-91
2022/10/18 03:50:26;;;;;;;8.68;7.88;;;12.10;99.90;;;;;;5055590;28;20237;-91
2022/10/18 03:52:56;;;;;;;8.98;7.93;;;12.10;99.90;;;;;;5055665;28;20288;-92
2022/10/18 03:55:24;;;;;;;7.57;6.90;;;12.10;99.90;;;;;;5055727;28;20206;-91
2022/10/18 03:57:52;;;;;;;8.75;8.00;;;12.10;99.90;;;;;;5055500;28;20205;-91
2022/10/18 04:00:21;;;;;;;8.50;7.43;;;12.10;99.90;;;;;;5055025;28;20218;-91
2022/10/18 04:02:50;;;;;;;8.50;7.72;;;12.10;99.90;;;;;;5055557;28;20236;-92
2022/10/18 04:05:25;;;;;;;9.05;8.23;;;12.10;99.90;;;;;;5055531;28;20202;-91
2022/10/18 04:07:55;;;;;;;9.80;8.45;;;12.10;99.90;;;;;;5055728;28;20226;-91
2022/10/18 04:10:25;;;;;;;7.82;7.13;;;12.10;99.90;;;;;;5053958;28;20221;-91
2022/10/18 04:12:55;;;;;;;8.40;7.60;;;12.10;99.90;;;;;;5054995;28;20203;-91
2022/10/18 04:15:23;;;;;;;8.13;7.32;;;12.10;99.90;;;;;;5055167;28;20210;-91
2022/10/18 04:17:52;;;;;;;12.27;8.30;;;12.10;99.90;;;;;;5055464;28;20206;-91
2022/10/18 04:20:20;;;;;;;8.57;7.43;;;12.00;99.90;;;;;;5055503;28;20233;-91
2022/10/18 04:22:48;;;;;;;9.43;8.45;;;12.00;99.90;;;;;;5055217;28;20216;-91
2022/10/18 04:25:18;;;;;;;10.30;9.25;;;12.00;99.90;;;;;;5055002;28;20213;-91
2022/10/18 04:27:47;;;;;;;13.18;8.88;;;12.00;99.90;;;;;;5055126;28;20231;-91
2022/10/18 04:30:15;;;;;;;8.25;7.60;;;12.00;99.90;;;;;;5054856;28;20232;-91
2022/10/18 04:32:43;;;;;;;10.63;8.07;;;12.00;99.90;;;;;;5055048;28;20213;-91
2022/10/18 04:35:11;;;;;;;9.45;8.55;;;12.00;99.90;;;;;;5054991;28;20209;-90
2022/10/18 04:37:39;;;;;;;8.82;7.95;;;12.00;99.90;;;;;;5054827;28;20206;-91
2022/10/18 04:40:09;;;;;;;10.23;8.85;;;12.00;99.90;;;;;;5054443;28;20241;-91
2022/10/18 04:42:39;;;;;;;11.02;8.63;;;12.00;99.90;;;;;;5054971;28;20214;-91
2022/10/18 04:45:08;;;;;;;13.70;8.23;;;11.90;99.90;;;;;;5054642;28;20214;-91
2022/10/18 04:47:36;;;;;;;13.60;10.18;;;11.90;99.90;;;;;;5054909;28;20221;-91
2022/10/18 04:50:06;;;;;;;8.75;7.90;;;11.90;99.90;;;;;;5056271;28;20233;-90
2022/10/18 04:52:34;;;;;;;9.90;8.93;;;11.90;99.90;;;;;;5068142;28;20217;-91
2022/10/18 04:55:02;;;;;;;9.18;8.38;;;11.80;99.90;;;;;;5060695;28;20220;-91
2022/10/18 04:57:30;;;;;;;9.25;8.35;;;11.80;99.90;;;;;;5054767;28;20217;-91
2022/10/18 05:00:00;;;;;;;9.48;8.55;;;11.80;99.90;;;;;;5054079;28;20230;-91
2022/10/18 05:02:29;;;;;;;8.57;7.82;;;11.80;99.90;;;;;;5054559;28;20209;-91
2022/10/18 05:04:57;;;;;;;9.30;8.48;;;11.80;99.90;;;;;;5054371;28;20216;-91
2022/10/18 05:07:26;;;;;;;10.35;8.75;;;11.70;99.90;;;;;;5053938;28;20234;-91
2022/10/18 05:09:54;;;;;;;11.55;8.55;;;11.70;99.90;;;;;;5054786;28;20509;-91
2022/10/18 05:12:22;;;;;;;10.23;9.23;;;11.70;99.90;;;;;;5054337;28;20213;-91
2022/10/18 05:14:50;;;;;;;12.80;9.35;;;11.70;99.90;;;;;;5054099;28;20205;-90
2022/10/18 05:17:20;;;;;;;11.07;9.32;;;11.60;99.90;;;;;;5053742;28;20205;-91
2022/10/18 05:19:48;;;;;;;10.32;9.23;;;11.60;99.90;;;;;;5053551;28;20236;-91
2022/10/18 05:22:16;;;;;;;10.63;9.15;;;11.60;99.90;;;;;;5053941;28;20217;-91
2022/10/18 05:24:44;;;;;;;10.25;9.00;;;11.60;99.90;;;;;;5054052;28;20212;-91
2022/10/18 05:27:13;;;;;;;9.40;8.50;;;11.60;99.90;;;;;;5053692;28;20224;-91
2022/10/18 05:29:41;;;;;;;12.40;8.73;;;11.60;99.90;;;;;;5053511;28;20230;-91
2022/10/18 05:32:09;;;;;;;11.95;9.00;;;11.60;99.90;;;;;;5053658;28;20214;-91
2022/10/18 05:34:39;;;;;;;10.65;9.55;;;11.60;99.90;;;;;;5053962;28;20209;-91
2022/10/18 05:37:07;;;;;;;11.60;8.77;;;11.60;99.90;;;;;;5053973;28;20205;-91
2022/10/18 05:39:36;;;;;;;10.65;8.93;;;11.60;99.90;;;;;;5053070;28;20244;-91
2022/10/18 05:42:05;;;;;;;9.63;7.78;;;11.60;99.90;;;;;;5053891;28;20202;-91
2022/10/18 05:44:33;;;;;;;15.27;10.15;;;11.60;99.90;;;;;;5053665;28;20206;-91
2022/10/18 05:47:01;;;;;;;13.07;10.10;;;11.60;99.90;;;;;;5053131;28;20229;-91
2022/10/18 05:49:29;;;;;;;11.43;10.00;;;11.60;99.90;;;;;;5053928;28;20222;-90
2022/10/18 05:51:59;;;;;;;12.18;9.93;;;11.60;99.90;;;;;;5053150;28;20202;-91
2022/10/18 05:54:27;;;;;;;15.15;10.50;;;11.70;99.90;;;;;;5053446;28;20212;-91
2022/10/18 05:56:55;;;;;;;12.07;10.00;;;11.60;99.90;;;;;;5053489;28;20210;-91
2022/10/18 05:59:24;;;;;;;10.40;9.35;;;11.60;99.90;;;;;;5052948;28;20230;-91
2022/10/18 06:01:52;;;;;;;21.88;10.55;;;11.70;99.90;;;;;;5053137;28;20231;-91
2022/10/18 06:04:20;;;;;;;11.73;10.52;;;11.70;99.90;;;;;;5053202;28;20209;-91
2022/10/18 06:06:50;;;;;;;10.88;9.60;;;11.80;99.90;;;;;;5053064;28;20217;-91
2022/10/18 06:09:20;;;;;;;10.40;9.38;;;11.70;99.90;;;;;;5052951;28;20225;-91
2022/10/18 06:11:48;;;;;;;20.15;10.35;;;11.80;99.90;;;;;;5053142;28;20205;-91
2022/10/18 06:14:16;;;;;;;13.15;10.68;;;11.80;99.90;;;;;;5052833;28;20224;-91
2022/10/18 06:16:45;;;;;;;15.75;11.52;;;11.80;99.90;;;;;;5052825;28;20213;-91
2022/10/18 06:19:13;;;;;;;11.00;9.77;;;11.90;99.90;;;;;;5052548;28;20225;-91
2022/10/18 06:21:42;;;;;;;9.90;8.45;;;11.90;99.90;;;;;;5053315;28;20211;-91
2022/10/18 06:24:11;;;;;;;10.25;9.25;;;11.90;99.90;;;;;;5053151;28;20209;-91
2022/10/18 06:26:40;;;;;;;8.73;7.93;;;12.00;99.90;;;;;;5053029;28;20220;-91
2022/10/18 06:29:08;;;;;;;8.52;7.72;;;12.00;99.90;;;;;;5052316;28;20225;-91
2022/10/18 06:31:37;;;;;;;11.43;8.98;;;12.00;99.90;;;;;;5052619;28;20209;-91
2022/10/18 06:34:05;;;;;;;8.43;7.60;;;12.00;99.90;;;;;;5052256;28;20202;-91
2022/10/18 06:36:33;;;;;;;11.75;9.40;;;12.10;99.90;;;;;;5052822;28;20216;-91
2022/10/18 06:39:02;;;;;;;13.95;10.60;;;12.10;99.90;;;;;;5052412;28;20245;-91
2022/10/18 06:41:30;;;;;;;9.77;8.77;;;12.10;99.90;;;;;;5052917;28;20205;-91
2022/10/18 06:44:05;;;;;;;11.90;10.63;;;12.10;99.90;;;;;;5052462;28;20206;-91
2022/10/18 06:46:34;;;;;;;9.85;8.85;;;12.20;99.90;;;;;;5052983;28;20213;-91
2022/10/18 06:49:02;;;;;;;10.50;8.98;;;12.20;99.90;;;;;;5052027;28;20237;-91
2022/10/18 06:51:30;;;;;;;10.48;8.75;;;12.20;99.90;;;;;;5052713;28;20202;-91
2022/10/18 06:54:00;;;;;;;11.00;8.90;;;12.30;99.90;;;;;;5052784;28;20202;-91
2022/10/18 06:56:44;;;;;;;11.32;9.93;;;12.30;99.90;;;;;;5052519;28;20212;-91
2022/10/18 06:59:14;;;;;;;9.65;8.70;;;12.40;99.90;;;;;;5051917;28;20218;-91
2022/10/18 07:01:43;;;;;;;12.20;8.98;;;12.30;99.90;;;;;;5052480;28;20212;-91
2022/10/18 07:04:13;;;;;;;13.23;9.63;;;12.40;99.90;;;;;;5052554;28;20214;-90
2022/10/18 07:06:41;;;;;;;10.15;8.45;;;12.40;99.90;;;;;;5052385;28;20228;-91
2022/10/18 07:09:11;;;;;;;11.88;8.10;;;12.50;99.90;;;;;;5052149;28;20245;-91
2022/10/18 07:11:40;;;;;;;14.00;8.95;;;12.50;99.90;;;;;;5052334;28;20207;-90
2022/10/18 07:14:08;;;;;;;9.05;8.13;;;12.60;99.90;;;;;;5052416;28;20209;-91
2022/10/18 07:16:44;;;;;;;10.07;8.60;;;12.60;99.90;;;;;;5052300;28;20197;-91
2022/10/18 07:19:13;;;;;;;14.63;8.15;;;12.60;99.90;;;;;;5051933;28;20228;-91
2022/10/18 07:21:42;;;;;;;11.85;9.10;;;12.70;99.90;;;;;;5052565;28;20201;-91
2022/10/18 07:24:10;;;;;;;8.85;7.80;;;12.80;99.90;;;;;;5052361;28;20296;-90
2022/10/18 07:26:38;;;;;;;8.18;7.38;;;12.80;99.90;;;;;;5052305;28;20206;-91
2022/10/18 07:29:09;;;;;;;9.48;8.52;;;12.80;99.90;;;;;;5051649;28;20241;-91
2022/10/18 07:31:39;;;;;;;15.02;9.13;;;13.00;99.90;;;;;;5052224;28;20288;-91
2022/10/18 07:34:12;;;;;;;9.50;7.63;;;13.00;99.90;;;;;;5052343;28;20209;-90
2022/10/18 07:36:40;;;;;;;10.55;8.73;;;13.00;99.90;;;;;;5052491;28;20217;-90
2022/10/18 07:39:14;;;;;;;14.77;8.95;;;13.10;99.90;;;;;;5052139;28;20231;-91
2022/10/18 07:41:43;;;;;;;10.75;8.50;;;13.20;99.90;;;;;;5051942;28;20210;-91
2022/10/18 07:44:11;;;;;;;7.97;7.20;;;13.20;99.90;;;;;;5053350;28;20208;-91
2022/10/18 07:46:39;;;;;;;9.27;7.80;;;13.20;99.90;;;;;;5056028;28;20204;-90
2022/10/18 07:49:09;;;;;;;9.23;8.40;;;13.30;99.90;;;;;;5055406;28;20234;-90
2022/10/18 07:51:38;;;;;;;9.43;8.45;;;13.30;99.90;;;;;;5055643;28;20205;-90
2022/10/18 07:54:06;;;;;;;9.70;8.73;;;13.40;99.90;;;;;;5055627;28;20202;-91
2022/10/18 07:56:34;;;;;;;17.50;9.25;;;13.50;99.90;;;;;;5056044;28;20206;-91
2022/10/18 07:59:03;;;;;;;10.93;9.88;;;13.60;99.90;;;;;;5055698;28;20218;-90
2022/10/18 08:01:31;;;;;;;16.15;8.15;;;13.60;99.90;;;;;;5060015;28;20265;-90
2022/10/18 08:04:00;;;;;;;13.65;9.48;;;13.70;99.90;;;;;;5071131;28;20240;-90
2022/10/18 08:06:36;;;;;;;11.27;8.35;;;13.70;99.90;;;;;;5059228;28;20259;-90
2022/10/18 08:09:12;;;;;;;9.55;7.10;;;13.80;99.90;;;;;;5055249;28;20232;-90
2022/10/18 08:11:41;;;;;;;11.15;8.98;;;13.90;99.90;;;;;;5055568;28;20204;-90
2022/10/18 08:14:09;;;;;;;11.38;8.23;;;14.00;99.90;;;;;;5055414;28;20212;-90
2022/10/18 08:16:37;;;;;;;10.88;8.25;;;14.10;99.90;;;;;;5055226;28;20202;-89
2022/10/18 08:19:06;;;;;;;9.60;8.60;;;14.10;99.90;;;;;;5054814;28;20224;-90
2022/10/18 08:21:34;;;;;;;9.70;8.70;;;14.20;99.90;;;;;;5055297;28;20198;-90
2022/10/18 08:24:04;;;;;;;7.40;6.75;;;14.30;99.90;;;;;;5055063;28;20257;-90
2022/10/18 08:26:33;;;;;;;8.25;7.45;;;14.50;99.90;;;;;;5055266;28;20210;-90
2022/10/18 08:29:01;;;;;;;9.30;7.55;;;14.60;99.90;;;;;;5054667;28;20228;-91
2022/10/18 08:31:50;;;;;;;8.90;7.13;;;14.70;99.90;;;;;;5054541;28;20273;-90
2022/10/18 08:34:18;;;;;;;9.32;8.30;;;14.90;99.90;;;;;;5054911;28;20236;-90
2022/10/18 08:36:47;;;;;;;9.00;7.47;;;14.90;99.90;;;;;;5054942;28;20206;-90
2022/10/18 08:39:17;;;;;;;9.77;7.85;;;15.10;99.90;;;;;;5054768;28;20328;-91
2022/10/18 08:42:09;;;;;;;10.43;8.57;;;15.20;99.90;;;;;;5054710;28;20197;-90
2022/10/18 08:44:45;;;;;;;25.40;9.57;;;15.40;99.90;;;;;;5054914;28;20296;-89
2022/10/18 08:47:16;;;;;;;8.15;7.35;;;15.60;99.90;;;;;;5054528;28;20296;-90
2022/10/18 08:49:50;;;;;;;8.02;7.22;;;15.80;99.90;;;;;;5054105;28;20241;-90
2022/10/18 08:52:28;;;;;;;7.53;6.75;;;15.90;99.90;;;;;;5055093;28;20198;-90
2022/10/18 08:55:02;;;;;;;9.82;7.60;;;16.10;99.90;;;;;;5054383;28;20206;-90
2022/10/18 08:57:31;;;;;;;7.65;6.93;;;16.30;99.90;;;;;;5054093;28;20300;-90
2022/10/18 09:00:14;;;;;;;8.63;7.65;;;16.40;99.90;;;;;;5054224;28;20218;-90
2022/10/18 09:02:57;;;;;;;13.15;7.20;;;16.60;99.90;;;;;;5054404;28;20206;-90
2022/10/18 09:05:31;;;;;;;17.08;8.05;;;16.80;99.90;;;;;;5054801;28;20201;-90
2022/10/18 09:08:22;;;;;;;8.30;7.13;;;17.00;99.90;;;;;;5054580;28;20206;-90
2022/10/18 09:11:04;;;;;;;13.82;7.85;;;17.20;99.90;;;;;;5053954;28;20228;-90
2022/10/18 09:14:13;;;;;;;9.32;7.80;;;17.50;99.90;;;;;;5054524;28;20209;-90
2022/10/18 09:16:49;;;;;;;7.82;7.13;;;17.80;99.90;;;;;;5020918;28;20202;-89
2022/10/18 09:19:30;;;;;;;10.95;8.05;;;18.10;99.90;;;;;;5054262;28;20221;-90
2022/10/18 09:22:05;;;;;;;9.68;7.30;;;18.30;99.90;;;;;;5053870;28;20208;-90
2022/10/18 09:24:41;;;;;;;10.23;9.00;;;18.70;99.90;;;;;;5054481;28;20232;-90
2022/10/18 09:27:16;;;;;;;9.50;7.93;;;19.10;99.90;;;;;;5053973;28;20206;-90
2022/10/18 09:30:02;;;;;;;7.28;6.55;;;19.50;99.90;;;;;;5053120;28;20232;-90
2022/10/18 09:32:41;;;;;;;10.90;7.40;;;19.80;99.90;;;;;;5053858;28;20212;-90
2022/10/18 09:35:16;;;;;;;15.70;8.15;;;20.10;99.90;;;;;;5053954;28;20220;-90
2022/10/18 09:37:48;;;;;;;10.05;7.28;;;20.10;99.90;;;;;;5053677;28;20216;-90
2022/10/18 09:40:21;;;;;;;8.70;7.78;;;19.90;99.90;;;;;;5053342;28;20229;-89
2022/10/18 09:42:58;;;;;;;8.02;6.88;;;19.80;99.90;;;;;;5053687;28;20235;-90
2022/10/18 09:45:30;;;;;;;7.95;7.15;;;19.60;99.90;;;;;;5054049;28;20292;-90
2022/10/18 09:48:07;;;;;;;9.27;7.13;;;19.60;99.90;;;;;;5053279;28;20209;-90
2022/10/18 09:50:40;;;;;;;9.88;6.80;;;19.50;99.90;;;;;;5053430;28;20276;-89
2022/10/18 09:53:15;;;;;;;10.52;7.68;;;19.50;99.90;;;;;;5053832;28;20255;-90
2022/10/18 09:55:57;;;;;;;9.70;8.38;;;19.60;99.90;;;;;;5053352;28;20209;-90
2022/10/18 09:58:44;;;;;;;9.43;7.50;;;19.70;99.90;;;;;;5052948;28;20256;-90
2022/10/18 10:01:15;;;;;;;9.05;7.97;;;19.90;99.90;;;;;;5053683;28;20212;-89
2022/10/18 10:03:43;;;;;;;10.85;8.43;;;20.00;99.90;;;;;;5053454;28;20223;-90
2022/10/18 10:06:25;;;;;;;9.45;8.00;;;20.10;99.90;;;;;;5056773;28;20201;-90
2022/10/18 10:08:58;;;;;;;9.18;8.27;;;20.20;99.90;;;;;;5054413;28;20356;-90
2022/10/18 10:11:39;;;;;;;11.10;9.40;;;20.40;99.90;;;;;;5053464;28;20206;-90
2022/10/18 10:14:13;;;;;;;8.23;7.47;;;20.70;99.90;;;;;;5053319;28;20224;-90
2022/10/18 10:16:50;;;;;;;11.57;8.40;;;20.80;99.90;;;;;;5052937;28;20201;-89
2022/10/18 10:19:22;;;;;;;10.18;7.70;;;21.30;99.90;;;;;;5052579;28;20229;-90
2022/10/18 10:21:54;;;;;;;10.73;8.23;;;21.40;99.90;;;;;;5053119;28;20213;-90
2022/10/18 10:24:29;;;;;;;11.13;7.68;;;21.50;99.90;;;;;;5053008;28;20201;-90
2022/10/18 10:27:07;;;;;;;9.82;7.40;;;21.70;99.90;;;;;;5053216;28;20217;-89
2022/10/18 10:29:56;;;;;;;11.63;7.40;;;22.00;99.90;;;;;;5052440;28;20232;-90
2022/10/18 10:32:45;;;;;;;11.23;8.48;;;22.30;99.90;;;;;;5053079;28;20205;-89
2022/10/18 10:35:22;;;;;;;13.02;10.00;;;22.60;99.90;;;;;;5052509;28;20202;-90
2022/10/18 10:38:23;;;;;;;10.20;7.70;;;22.80;99.90;;;;;;5052392;28;20208;-90
2022/10/18 10:40:52;;;;;;;10.55;8.05;;;23.00;99.90;;;;;;5053082;28;20205;-90
2022/10/18 10:43:27;;;;;;;8.43;7.70;;;23.30;99.90;;;;;;5053058;28;20209;-90
2022/10/18 10:46:14;;;;;;;7.88;7.25;;;23.40;99.90;;;;;;5035194;28;20225;-90
2022/10/18 10:48:49;;;;;;;11.13;8.48;;;23.60;99.90;;;;;;5052086;28;20222;-89
2022/10/18 10:51:30;;;;;;;9.27;8.38;;;23.70;99.90;;;;;;5052255;28;20225;-90
2022/10/18 10:54:02;;;;;;;11.27;8.45;;;23.90;99.90;;;;;;5052730;28;20209;-90
2022/10/18 10:56:33;;;;;;;9.60;7.85;;;24.10;99.90;;;;;;5052797;28;20209;-89
2022/10/18 10:59:09;;;;;;;9.10;8.30;;;24.10;99.90;;;;;;5052256;28;20229;-90
2022/10/18 11:01:40;;;;;;;8.65;7.78;;;24.30;99.90;;;;;;5052604;28;20236;-89
2022/10/18 11:04:28;;;;;;;22.08;9.05;;;24.30;99.90;;;;;;5052613;28;20201;-89
2022/10/18 11:07:06;;;;;;;9.27;8.38;;;24.50;99.90;;;;;;5052888;28;20210;-90
2022/10/18 11:09:57;;;;;;;11.57;7.47;;;24.30;99.90;;;;;;5052427;28;20229;-89
2022/10/18 11:12:40;;;;;;;10.27;7.90;;;24.50;99.90;;;;;;5055768;28;20197;-88
2022/10/18 11:15:31;;;;;;;9.65;8.30;;;24.70;99.90;;;;;;5054388;28;20205;-89
2022/10/18 11:18:20;;;;;;;10.48;8.93;;;24.80;99.90;;;;;;5052021;28;20259;-88
2022/10/18 11:20:58;;;;;;;10.07;9.05;;;25.00;99.90;;;;;;5056327;28;20210;-88
2022/10/18 11:23:31;;;;;;;9.02;8.23;;;25.10;99.90;;;;;;5056234;28;20244;-88
2022/10/18 11:26:23;;;;;;;8.13;7.43;;;25.20;99.90;;;;;;5056436;28;20205;-88
2022/10/18 11:29:23;;;;;;;8.93;8.02;;;25.20;99.90;;;;;;5055955;28;20316;-89
2022/10/18 11:32:03;;;;;;;15.93;9.68;;;25.30;99.90;;;;;;5055707;28;20298;-89
2022/10/18 11:34:49;;;;;;;9.60;8.68;;;25.50;99.30;;;;;;5056649;28;20209;-89
2022/10/18 11:37:41;;;;;;;12.35;9.30;;;25.70;99.60;;;;;;5056114;28;20198;-88
2022/10/18 11:40:29;;;;;;;13.38;8.95;;;25.80;99.40;;;;;;5056097;28;20232;-88
2022/10/18 11:43:09;;;;;;;10.52;8.65;;;25.90;99.40;;;;;;5056051;28;20213;-88
2022/10/18 11:45:45;;;;;;;13.77;9.23;;;25.90;99.10;;;;;;5055688;28;20201;-88
2022/10/18 11:48:50;;;;;;;12.45;8.73;;;26.10;98.90;;;;;;5055851;28;20225;-88
2022/10/18 11:51:28;;;;;;;10.75;8.25;;;26.20;97.90;;;;;;5008790;28;20227;-89
2022/10/18 11:54:31;;;;;;;9.95;9.05;;;26.50;98.40;;;;;;5055541;28;20224;-89
2022/10/18 11:57:12;;;;;;;9.95;8.95;;;26.70;97.50;;;;;;5055859;28;20202;-89
2022/10/18 11:59:52;;;;;;;10.95;9.80;;;26.90;97.80;;;;;;5055677;28;20221;-89
2022/10/18 12:02:41;;;;;;;11.38;8.63;;;26.70;97.20;;;;;;5056036;28;20206;-88
2022/10/18 12:05:12;;;;;;;9.45;8.50;;;26.70;98.10;;;;;;5055744;28;20213;-89
2022/10/18 12:08:02;;;;;;;9.23;8.23;;;26.70;96.60;;;;;;5055723;28;20214;-89
2022/10/18 12:10:35;;;;;;;13.93;9.60;;;26.80;97.80;;;;;;5055417;28;20245;-89
2022/10/18 12:13:33;;;;;;;10.93;8.95;;;27.10;96.00;;;;;;5055546;28;20202;-89
2022/10/18 12:16:05;;;;;;;8.35;7.55;;;27.30;96.20;;;;;;5055266;28;20216;-89
2022/10/18 12:18:36;;;;;;;9.60;8.43;;;27.20;95.90;;;;;;5055086;28;20232;-89
2022/10/18 12:21:06;;;;;;;8.32;7.53;;;27.20;97.30;;;;;;5055264;28;20210;-88
2022/10/18 12:23:44;;;;;;;8.43;7.63;;;27.20;96.50;;;;;;5055230;28;20220;-88
2022/10/18 12:26:16;;;;;;;11.20;8.82;;;27.10;95.60;;;;;;5055377;28;20274;-89
2022/10/18 12:28:53;;;;;;;10.32;9.38;;;27.40;96.10;;;;;;5054985;28;20229;-89
2022/10/18 12:31:26;;;;;;;12.38;9.35;;;27.80;95.10;;;;;;5053617;28;20252;-88
2022/10/18 12:33:59;;;;;;;9.95;8.95;;;27.90;95.30;;;;;;5055289;28;20208;-89
2022/10/18 12:36:45;;;;;;;9.40;8.55;;;27.80;94.50;;;;;;5055026;28;20216;-89
2022/10/18 12:39:24;;;;;;;9.93;8.93;;;27.50;94.40;;;;;;5054666;28;20238;-89
2022/10/18 12:42:21;;;;;;;12.52;8.13;;;27.40;94.40;;;;;;5054780;28;20225;-88
2022/10/18 12:45:00;;;;;;;8.70;7.90;;;27.50;94.50;;;;;;5055085;28;20296;-89
2022/10/18 12:47:30;;;;;;;11.40;8.65;;;27.50;95.60;;;;;;5054663;28;20209;-88
2022/10/18 12:50:01;;;;;;;8.70;7.90;;;27.60;95.60;;;;;;5054291;28;20294;-89
2022/10/18 12:52:33;;;;;;;14.23;9.85;;;27.80;95.60;;;;;;5054373;28;20257;-88
2022/10/18 12:55:26;;;;;;;12.90;8.52;;;27.90;93.80;;;;;;5054642;28;20213;-88
2022/10/18 12:58:21;;;;;;;12.63;9.10;;;27.90;93.90;;;;;;5054490;28;20293;-88
2022/10/18 13:01:01;;;;;;;12.27;9.82;;;28.10;95.00;;;;;;5054689;28;20225;-89
2022/10/18 13:04:10;;;;;;;13.65;8.95;;;28.30;94.40;;;;;;5054381;28;20205;-88
2022/10/18 13:07:55;;;;;;;11.15;8.52;;;28.30;93.80;;;;;;5052861;28;20214;-88
2022/10/18 13:10:52;;;;;;;10.43;8.80;;;27.70;94.00;;;;;;5054133;28;20212;-88
2022/10/18 13:14:04;;;;;;;10.38;9.35;;;27.30;93.20;;;;;;5041677;28;20228;-88
2022/10/18 13:16:45;;;;;;;13.63;8.95;;;27.20;93.80;;;;;;5053912;28;20201;-88